Peoga, Indiana
Current Conditions -  °F | °C
As of 6:15 AM on Saturday 25 Oct 2014 (Local Time) from K1II Reporting Station
Haze Haze  
Wind Chill:   Ceiling: 4400
Heat Index:   Visibility: 5mi
Dew Point:   Wind: 0mph
Humidity: 100%   Direction: NA
Pressure: 29.98"   Gusts: NA
Location:  39.3709°N, 86.1938°W
Report Text: K1II 251015Z AUTO 00000KT 5SM BR SCT037 BKN044 OVC080 08/08 A2998 RMK AO2
Loading
Personal Weather Stations






























Interactive Weather Map
Tropical Storm Tracking
New forecast layout! Learn more

10-Day Weather Forecast

Advertisements
Track Severe Weather on mobile